Time;durP1;ratioP1;P1;durP2;ratioP2;P2;SDS_P1;SDS_P2;PMS_P1;PMS_P2;Temp;Humidity;BMP_temperature;BMP_pressure;BME280_temperature;BME280_humidity;BME280_pressure;Samples;Min_cycle;Max_cycle;Signal;HPM_P1;HPM_P2
2021/11/09 00:00:14;;;;;;;0.32;0.28;;;;;;;;;;351424;28;20920;-34
2021/11/09 00:00:31;;;;;;;0.20;0.20;;;;;;;;;;346778;28;114435;-32
2021/11/09 00:00:47;;;;;;;0.10;0.10;;;;;;;;;;346016;28;136955;-36
2021/11/09 00:01:02;;;;;;;0.22;0.20;;;;;;;;;;345968;28;137001;-34
2021/11/09 00:01:14;;;;;;;0.35;0.20;;;;;;;;;;345926;28;137184;-33
2021/11/09 00:01:25;;;;;;;0.50;0.25;;;;;;;;;;351089;28;21410;-33
2021/11/09 00:01:43;;;;;;;0.30;0.20;;;;;;;;;;352150;28;1053;-35
2021/11/09 00:01:58;;;;;;;0.50;0.13;;;;;;;;;;347237;28;136503;-33
2021/11/09 00:02:10;;;;;;;0.60;0.10;;;;;;;;;;348991;28;91158;-34
2021/11/09 00:02:21;;;;;;;0.38;0.10;;;;;;;;;;349094;28;67815;-35
2021/11/09 00:02:32;;;;;;;0.32;0.20;;;;;;;;;;351408;28;21742;-35
2021/11/09 00:02:45;;;;;;;0.30;0.20;;;;;;;;;;351458;28;21031;-32
2021/11/09 00:02:57;;;;;;;0.20;0.20;;;;;;;;;;349153;28;45121;-33
2021/11/09 00:03:09;;;;;;;0.50;0.20;;;;;;;;;;349079;28;44746;-34
2021/11/09 00:03:20;;;;;;;0.50;0.20;;;;;;;;;;348403;28;68282;-33
2021/11/09 00:03:36;;;;;;;0.20;0.20;;;;;;;;;;348614;28;20929;-35
2021/11/09 00:04:07;;;;;;;0.10;0.10;;;;;;;;;;345475;28;113736;-34
2021/11/09 00:04:21;;;;;;;0.30;0.20;;;;;;;;;;345414;28;136546;-37
2021/11/09 00:04:37;;;;;;;0.30;0.20;;;;;;;;;;347561;28;90992;-32
2021/11/09 00:04:53;;;;;;;0.47;0.20;;;;;;;;;;344824;28;136719;-35
2021/11/09 00:05:07;;;;;;;0.30;0.20;;;;;;;;;;346756;28;114271;-37
2021/11/09 00:05:21;;;;;;;0.45;0.20;;;;;;;;;;347641;28;91601;-37
2021/11/09 00:05:33;;;;;;;0.40;0.13;;;;;;;;;;348130;28;114019;-34
2021/11/09 00:05:58;;;;;;;0.15;0.10;;;;;;;;;;351394;28;21296;-33
2021/11/09 00:06:29;;;;;;;0.50;0.20;;;;;;;;;;347381;28;137199;-36
2021/11/09 00:06:43;;;;;;;0.57;0.20;;;;;;;;;;347765;28;91270;-32
2021/11/09 00:07:03;;;;;;;0.30;0.20;;;;;;;;;;348988;28;91153;-33
2021/11/09 00:07:40;;;;;;;0.57;0.30;;;;;;;;;;347480;28;136837;-33
2021/11/09 00:07:56;;;;;;;0.20;0.20;;;;;;;;;;345994;28;136451;-32
2021/11/09 00:08:12;;;;;;;0.20;0.20;;;;;;;;;;346843;28;114082;-32
2021/11/09 00:08:32;;;;;;;0.28;0.20;;;;;;;;;;346325;28;135601;-31
2021/11/09 00:08:54;;;;;;;0.38;0.20;;;;;;;;;;344910;28;159496;-32
2021/11/09 00:09:08;;;;;;;0.50;0.28;;;;;;;;;;345501;28;159764;-36
2021/11/09 00:09:19;;;;;;;0.40;0.20;;;;;;;;;;347879;28;91151;-32
2021/11/09 00:09:34;;;;;;;0.38;0.20;;;;;;;;;;350263;28;21125;-36
2021/11/09 00:09:57;;;;;;;0.30;0.20;;;;;;;;;;348599;28;114326;-35
2021/11/09 00:10:08;;;;;;;0.50;0.30;;;;;;;;;;346218;28;136409;-36
2021/11/09 00:10:20;;;;;;;0.40;0.30;;;;;;;;;;350320;28;20876;-31
2021/11/09 00:10:31;;;;;;;0.47;0.20;;;;;;;;;;349348;28;44089;-36
2021/11/09 00:10:43;;;;;;;0.40;0.20;;;;;;;;;;350332;28;20926;-32
2021/11/09 00:10:55;;;;;;;0.40;0.20;;;;;;;;;;349540;28;45028;-36
2021/11/09 00:11:06;;;;;;;0.30;0.20;;;;;;;;;;348069;28;45279;-36
2021/11/09 00:11:17;;;;;;;0.52;0.25;;;;;;;;;;348844;28;21141;-36
2021/11/09 00:11:28;;;;;;;0.50;0.30;;;;;;;;;;348905;28;20901;-33
2021/11/09 00:11:40;;;;;;;0.40;0.25;;;;;;;;;;349036;28;21201;-34
2021/11/09 00:11:51;;;;;;;0.30;0.20;;;;;;;;;;349760;28;44999;-32
2021/11/09 00:12:02;;;;;;;0.30;0.15;;;;;;;;;;351680;28;21322;-34
2021/11/09 00:12:13;;;;;;;0.40;0.20;;;;;;;;;;351696;28;20984;-36
2021/11/09 00:12:32;;;;;;;0.40;0.20;;;;;;;;;;351692;28;21218;-33
2021/11/09 00:12:56;;;;;;;0.20;0.20;;;;;;;;;;347691;28;135693;-33
2021/11/09 00:13:07;;;;;;;0.30;0.20;;;;;;;;;;349141;27;136468;-31
2021/11/09 00:13:19;;;;;;;0.30;0.28;;;;;;;;;;353172;27;21193;-32
2021/11/09 00:13:30;;;;;;;0.43;0.30;;;;;;;;;;350940;28;45509;-33
2021/11/09 00:13:43;;;;;;;0.40;0.20;;;;;;;;;;351795;28;21128;-34
2021/11/09 00:13:54;;;;;;;0.30;0.20;;;;;;;;;;350103;28;68831;-32
2021/11/09 00:14:05;;;;;;;0.50;0.40;;;;;;;;;;351792;28;20769;-34
2021/11/09 00:14:16;;;;;;;0.93;0.40;;;;;;;;;;351784;28;20953;-34
2021/11/09 00:14:28;;;;;;;1.10;0.40;;;;;;;;;;351722;28;21169;-34
2021/11/09 00:14:39;;;;;;;0.30;0.20;;;;;;;;;;350565;28;44617;-33
2021/11/09 00:14:50;;;;;;;0.17;0.10;;;;;;;;;;351778;28;21238;-35
2021/11/09 00:15:04;;;;;;;0.22;0.10;;;;;;;;;;348941;28;20941;-32
2021/11/09 00:15:17;;;;;;;0.68;0.20;;;;;;;;;;347309;28;67524;-33
2021/11/09 00:15:30;;;;;;;0.82;0.17;;;;;;;;;;346461;28;91157;-34
2021/11/09 00:15:42;;;;;;;0.55;0.20;;;;;;;;;;347265;28;68187;-33
2021/11/09 00:15:53;;;;;;;0.40;0.20;;;;;;;;;;348114;28;44750;-34
2021/11/09 00:16:05;;;;;;;0.35;0.20;;;;;;;;;;348943;28;21465;-33
2021/11/09 00:16:16;;;;;;;0.20;0.20;;;;;;;;;;348032;28;45291;-34
2021/11/09 00:16:28;;;;;;;0.20;0.20;;;;;;;;;;347487;28;21115;-32
2021/11/09 00:16:39;;;;;;;0.30;0.20;;;;;;;;;;346722;28;45423;-35
2021/11/09 00:16:50;;;;;;;0.43;0.30;;;;;;;;;;347385;28;20988;-34
2021/11/09 00:17:01;;;;;;;0.40;0.20;;;;;;;;;;348727;28;20685;-34
2021/11/09 00:17:12;;;;;;;0.35;0.20;;;;;;;;;;348896;28;20929;-34
2021/11/09 00:17:24;;;;;;;0.17;0.10;;;;;;;;;;347484;28;21271;-34
2021/11/09 00:17:35;;;;;;;0.20;0.20;;;;;;;;;;347825;28;21386;-31
2021/11/09 00:17:49;;;;;;;0.40;0.20;;;;;;;;;;348134;28;44941;-36
2021/11/09 00:18:02;;;;;;;0.43;0.20;;;;;;;;;;347271;28;68113;-36
2021/11/09 00:18:13;;;;;;;0.28;0.10;;;;;;;;;;346482;28;90080;-36
2021/11/09 00:18:24;;;;;;;0.30;0.10;;;;;;;;;;349707;28;20955;-34
2021/11/09 00:18:36;;;;;;;0.40;0.28;;;;;;;;;;351454;28;21530;-32
2021/11/09 00:18:48;;;;;;;0.50;0.30;;;;;;;;;;351714;28;20789;-31
2021/11/09 00:19:01;;;;;;;0.50;0.38;;;;;;;;;;350039;28;68226;-35
2021/11/09 00:19:12;;;;;;;0.40;0.30;;;;;;;;;;350889;28;44843;-35
2021/11/09 00:19:23;;;;;;;0.35;0.30;;;;;;;;;;352897;27;20995;-34
2021/11/09 00:19:34;;;;;;;0.30;0.20;;;;;;;;;;353077;27;21574;-36
2021/11/09 00:19:45;;;;;;;0.30;0.10;;;;;;;;;;352388;27;45200;-32
2021/11/09 00:19:58;;;;;;;0.30;0.10;;;;;;;;;;351592;28;20915;-33
2021/11/09 00:20:14;;;;;;;0.10;0.10;;;;;;;;;;350747;28;44874;-35
2021/11/09 00:20:27;;;;;;;0.20;0.20;;;;;;;;;;347597;28;136955;-32
2021/11/09 00:20:40;;;;;;;0.20;0.20;;;;;;;;;;350055;28;68238;-33
2021/11/09 00:20:51;;;;;;;0.20;0.20;;;;;;;;;;348617;28;68119;-34
2021/11/09 00:21:02;;;;;;;0.30;0.20;;;;;;;;;;350348;28;21661;-31
2021/11/09 00:21:15;;;;;;;0.50;0.28;;;;;;;;;;350318;28;21128;-38
2021/11/09 00:21:27;;;;;;;0.50;0.30;;;;;;;;;;348607;28;67424;-35
2021/11/09 00:21:38;;;;;;;0.40;0.30;;;;;;;;;;350236;28;21201;-31
2021/11/09 00:21:49;;;;;;;0.40;0.30;;;;;;;;;;349457;28;45368;-31
2021/11/09 00:22:00;;;;;;;0.30;0.30;;;;;;;;;;350247;28;20974;-36
2021/11/09 00:22:11;;;;;;;0.40;0.30;;;;;;;;;;351689;28;21557;-33
2021/11/09 00:22:24;;;;;;;0.40;0.30;;;;;;;;;;351690;28;21263;-34
2021/11/09 00:22:36;;;;;;;0.17;0.17;;;;;;;;;;348630;28;68109;-34
2021/11/09 00:22:47;;;;;;;0.20;0.20;;;;;;;;;;350940;28;21134;-35
2021/11/09 00:23:00;;;;;;;0.20;0.20;;;;;;;;;;351663;28;20875;-32
2021/11/09 00:23:12;;;;;;;0.30;0.30;;;;;;;;;;349219;28;90988;-35
2021/11/09 00:23:23;;;;;;;0.40;0.30;;;;;;;;;;350890;28;44699;-34
2021/11/09 00:23:35;;;;;;;0.50;0.30;;;;;;;;;;351573;28;21418;-33
2021/11/09 00:23:46;;;;;;;0.40;0.20;;;;;;;;;;350164;28;21492;-33
2021/11/09 00:24:00;;;;;;;0.25;0.20;;;;;;;;;;349401;28;45104;-33
2021/11/09 00:24:11;;;;;;;0.25;0.20;;;;;;;;;;347887;28;91199;-36
2021/11/09 00:24:22;;;;;;;0.35;0.20;;;;;;;;;;350269;28;20653;-35
2021/11/09 00:24:33;;;;;;;0.40;0.20;;;;;;;;;;350105;28;20865;-38
2021/11/09 00:24:45;;;;;;;0.30;0.20;;;;;;;;;;350975;28;1069;-36
2021/11/09 00:24:57;;;;;;;0.22;0.20;;;;;;;;;;349485;28;45290;-35
2021/11/09 00:25:09;;;;;;;0.30;0.30;;;;;;;;;;350973;28;21538;-37
2021/11/09 00:25:22;;;;;;;0.30;0.30;;;;;;;;;;348462;28;67761;-33
2021/11/09 00:25:34;;;;;;;0.20;0.20;;;;;;;;;;349506;28;44644;-36
2021/11/09 00:25:45;;;;;;;0.20;0.20;;;;;;;;;;349909;28;67912;-36
2021/11/09 00:25:56;;;;;;;0.20;0.20;;;;;;;;;;350182;28;20969;-33
2021/11/09 00:26:08;;;;;;;0.30;0.20;;;;;;;;;;350267;28;20943;-34
2021/11/09 00:26:20;;;;;;;0.30;0.20;;;;;;;;;;349487;28;44926;-35
2021/11/09 00:26:31;;;;;;;0.22;0.20;;;;;;;;;;349504;28;44574;-34
2021/11/09 00:26:42;;;;;;;0.20;0.20;;;;;;;;;;350241;28;21470;-34
2021/11/09 00:26:54;;;;;;;0.30;0.20;;;;;;;;;;350252;28;20965;-32
2021/11/09 00:27:05;;;;;;;0.35;0.20;;;;;;;;;;350831;28;1304;-34
2021/11/09 00:27:16;;;;;;;0.30;0.20;;;;;;;;;;350292;28;21491;-36
2021/11/09 00:27:27;;;;;;;0.20;0.20;;;;;;;;;;349482;28;44739;-34
2021/11/09 00:27:39;;;;;;;0.20;0.20;;;;;;;;;;348066;28;45294;-32
2021/11/09 00:27:50;;;;;;;0.25;0.25;;;;;;;;;;348907;28;21660;-33
2021/11/09 00:28:02;;;;;;;0.30;0.30;;;;;;;;;;346746;28;45380;-31
2021/11/09 00:28:14;;;;;;;0.30;0.25;;;;;;;;;;346632;28;45117;-36
2021/11/09 00:28:25;;;;;;;0.40;0.20;;;;;;;;;;347538;28;20858;-34
2021/11/09 00:28:36;;;;;;;0.68;0.20;;;;;;;;;;347489;28;21551;-34
2021/11/09 00:28:47;;;;;;;0.82;0.30;;;;;;;;;;347252;28;21235;-33
2021/11/09 00:28:59;;;;;;;0.70;0.30;;;;;;;;;;345712;28;45025;-32
2021/11/09 00:29:10;;;;;;;0.30;0.30;;;;;;;;;;344782;28;20893;-33
2021/11/09 00:29:21;;;;;;;0.38;0.28;;;;;;;;;;344749;28;21309;-34
2021/11/09 00:29:32;;;;;;;0.30;0.20;;;;;;;;;;345078;28;20862;-37
2021/11/09 00:29:44;;;;;;;0.20;0.20;;;;;;;;;;346001;28;20653;-34
2021/11/09 00:29:55;;;;;;;0.20;0.10;;;;;;;;;;346927;28;45367;-36
2021/11/09 00:30:08;;;;;;;0.20;0.10;;;;;;;;;;348861;28;21700;-34
2021/11/09 00:30:21;;;;;;;0.28;0.20;;;;;;;;;;347320;28;67300;-31
2021/11/09 00:30:33;;;;;;;0.40;0.20;;;;;;;;;;345055;28;90459;-35
2021/11/09 00:30:45;;;;;;;0.75;0.20;;;;;;;;;;347412;28;20633;-35
2021/11/09 00:30:56;;;;;;;0.75;0.20;;;;;;;;;;347587;28;45237;-32
2021/11/09 00:31:07;;;;;;;0.30;0.20;;;;;;;;;;349700;28;21120;-36
2021/11/09 00:31:18;;;;;;;0.28;0.10;;;;;;;;;;350977;28;1432;-32
2021/11/09 00:31:29;;;;;;;0.20;0.10;;;;;;;;;;350353;28;21218;-35
2021/11/09 00:31:40;;;;;;;0.28;0.20;;;;;;;;;;350230;28;20933;-32
2021/11/09 00:31:52;;;;;;;0.28;0.20;;;;;;;;;;349460;28;44712;-34
2021/11/09 00:32:04;;;;;;;0.20;0.20;;;;;;;;;;352309;27;20882;-35
2021/11/09 00:32:16;;;;;;;0.20;0.20;;;;;;;;;;350835;28;44989;-38
2021/11/09 00:32:28;;;;;;;0.20;0.20;;;;;;;;;;351340;27;45336;-35
2021/11/09 00:32:42;;;;;;;0.20;0.20;;;;;;;;;;352304;27;45175;-33
2021/11/09 00:32:55;;;;;;;0.30;0.25;;;;;;;;;;349780;27;114080;-36
2021/11/09 00:33:06;;;;;;;0.50;0.30;;;;;;;;;;352295;27;45321;-33
2021/11/09 00:33:17;;;;;;;0.50;0.22;;;;;;;;;;353073;27;20865;-37
2021/11/09 00:33:30;;;;;;;0.50;0.30;;;;;;;;;;353024;27;21111;-34
2021/11/09 00:33:41;;;;;;;0.40;0.30;;;;;;;;;;351530;27;67776;-33
2021/11/09 00:33:52;;;;;;;0.38;0.30;;;;;;;;;;352041;27;44561;-32
2021/11/09 00:34:04;;;;;;;0.30;0.30;;;;;;;;;;351674;28;21135;-36
2021/11/09 00:34:16;;;;;;;0.20;0.20;;;;;;;;;;350765;28;45588;-33
2021/11/09 00:34:27;;;;;;;0.20;0.20;;;;;;;;;;350854;28;44989;-33
2021/11/09 00:34:38;;;;;;;0.30;0.13;;;;;;;;;;351512;28;21169;-36
2021/11/09 00:34:49;;;;;;;0.20;0.10;;;;;;;;;;351687;28;21441;-36
2021/11/09 00:35:00;;;;;;;0.28;0.13;;;;;;;;;;351631;28;21058;-32
2021/11/09 00:35:14;;;;;;;0.20;0.20;;;;;;;;;;351678;28;20972;-33
2021/11/09 00:35:27;;;;;;;0.50;0.30;;;;;;;;;;349155;28;91066;-34
2021/11/09 00:35:38;;;;;;;0.40;0.30;;;;;;;;;;350080;28;68005;-32
2021/11/09 00:35:50;;;;;;;0.35;0.20;;;;;;;;;;351627;28;21045;-35
2021/11/09 00:36:01;;;;;;;0.30;0.20;;;;;;;;;;352731;27;20824;-34
2021/11/09 00:36:12;;;;;;;0.35;0.10;;;;;;;;;;352370;27;44137;-36
2021/11/09 00:36:24;;;;;;;0.30;0.20;;;;;;;;;;353127;27;21495;-35
2021/11/09 00:36:35;;;;;;;0.43;0.30;;;;;;;;;;351612;28;21397;-35
2021/11/09 00:36:46;;;;;;;0.30;0.25;;;;;;;;;;349461;28;44896;-35
2021/11/09 00:36:58;;;;;;;0.57;0.20;;;;;;;;;;350189;28;20655;-32
2021/11/09 00:37:10;;;;;;;0.50;0.20;;;;;;;;;;349312;28;44763;-33
2021/11/09 00:37:21;;;;;;;0.60;0.30;;;;;;;;;;350189;28;21127;-35
2021/11/09 00:37:32;;;;;;;0.30;0.30;;;;;;;;;;350291;28;20803;-33
2021/11/09 00:37:44;;;;;;;0.30;0.30;;;;;;;;;;349430;28;44799;-36
2021/11/09 00:37:57;;;;;;;0.30;0.30;;;;;;;;;;349449;28;45400;-36
2021/11/09 00:38:10;;;;;;;0.28;0.20;;;;;;;;;;349378;28;45195;-31
2021/11/09 00:38:21;;;;;;;0.30;0.22;;;;;;;;;;347795;28;91479;-35
2021/11/09 00:38:33;;;;;;;0.28;0.20;;;;;;;;;;350347;28;45070;-33
2021/11/09 00:38:46;;;;;;;0.30;0.20;;;;;;;;;;351788;27;44607;-33
2021/11/09 00:38:57;;;;;;;0.40;0.20;;;;;;;;;;352219;27;45354;-33
2021/11/09 00:39:12;;;;;;;0.40;0.20;;;;;;;;;;352339;27;44486;-33
2021/11/09 00:39:23;;;;;;;0.47;0.20;;;;;;;;;;350663;27;90518;-35
2021/11/09 00:39:34;;;;;;;0.50;0.20;;;;;;;;;;352231;27;45291;-33
2021/11/09 00:39:45;;;;;;;0.30;0.15;;;;;;;;;;353211;27;20772;-31
2021/11/09 00:39:56;;;;;;;0.40;0.20;;;;;;;;;;353111;27;20977;-35
2021/11/09 00:40:09;;;;;;;0.47;0.22;;;;;;;;;;353176;27;21567;-35
2021/11/09 00:40:23;;;;;;;0.38;0.20;;;;;;;;;;351530;27;67936;-33
2021/11/09 00:40:35;;;;;;;0.65;0.30;;;;;;;;;;351332;27;67772;-34
2021/11/09 00:40:47;;;;;;;0.70;0.32;;;;;;;;;;351540;27;67691;-33
2021/11/09 00:40:58;;;;;;;0.65;0.30;;;;;;;;;;353185;27;20909;-36
2021/11/09 00:41:09;;;;;;;0.43;0.20;;;;;;;;;;352265;27;45258;-32
2021/11/09 00:41:21;;;;;;;0.40;0.20;;;;;;;;;;353193;27;20938;-32
2021/11/09 00:41:32;;;;;;;0.32;0.28;;;;;;;;;;351686;28;21116;-34
2021/11/09 00:41:43;;;;;;;0.40;0.30;;;;;;;;;;350917;28;45284;-34
2021/11/09 00:41:55;;;;;;;0.60;0.22;;;;;;;;;;351590;28;21683;-34
2021/11/09 00:42:06;;;;;;;0.60;0.25;;;;;;;;;;351666;28;20930;-36
2021/11/09 00:42:18;;;;;;;0.65;0.30;;;;;;;;;;351545;28;21261;-35
2021/11/09 00:42:29;;;;;;;0.40;0.22;;;;;;;;;;350851;28;44956;-34
2021/11/09 00:42:40;;;;;;;0.30;0.25;;;;;;;;;;351624;28;21181;-31
2021/11/09 00:42:51;;;;;;;0.20;0.20;;;;;;;;;;351698;28;21236;-34
2021/11/09 00:43:04;;;;;;;0.30;0.30;;;;;;;;;;351675;28;21148;-32
2021/11/09 00:43:17;;;;;;;0.20;0.20;;;;;;;;;;349986;28;67684;-33
2021/11/09 00:43:28;;;;;;;0.20;0.20;;;;;;;;;;350001;27;90888;-33
2021/11/09 00:43:39;;;;;;;0.35;0.20;;;;;;;;;;353174;27;21359;-32
2021/11/09 00:43:50;;;;;;;0.40;0.20;;;;;;;;;;353114;27;20983;-33
2021/11/09 00:44:02;;;;;;;0.25;0.20;;;;;;;;;;351517;28;21144;-34
2021/11/09 00:44:13;;;;;;;0.20;0.20;;;;;;;;;;351631;28;20714;-36
2021/11/09 00:44:24;;;;;;;0.10;0.10;;;;;;;;;;351603;28;20791;-34
2021/11/09 00:44:36;;;;;;;0.50;0.10;;;;;;;;;;351350;28;21446;-34
2021/11/09 00:44:47;;;;;;;0.50;0.20;;;;;;;;;;349423;28;44080;-32
2021/11/09 00:44:58;;;;;;;0.57;0.22;;;;;;;;;;350173;28;20886;-32
2021/11/09 00:45:11;;;;;;;0.28;0.22;;;;;;;;;;350269;28;21590;-34
2021/11/09 00:45:22;;;;;;;0.30;0.20;;;;;;;;;;348687;28;68180;-32
2021/11/09 00:45:34;;;;;;;0.30;0.20;;;;;;;;;;350305;28;20668;-34
2021/11/09 00:45:46;;;;;;;0.30;0.20;;;;;;;;;;349277;28;45298;-33
2021/11/09 00:45:57;;;;;;;0.20;0.20;;;;;;;;;;350024;28;45372;-34
2021/11/09 00:46:08;;;;;;;0.20;0.20;;;;;;;;;;352153;28;1369;-36
2021/11/09 00:46:19;;;;;;;0.20;0.20;;;;;;;;;;350870;28;45319;-33
2021/11/09 00:46:31;;;;;;;0.20;0.20;;;;;;;;;;351683;28;21355;-35
2021/11/09 00:46:42;;;;;;;0.20;0.20;;;;;;;;;;352258;27;20821;-32
2021/11/09 00:46:54;;;;;;;0.40;0.20;;;;;;;;;;351618;28;21539;-33
2021/11/09 00:47:05;;;;;;;0.52;0.28;;;;;;;;;;350878;28;44769;-33
2021/11/09 00:47:16;;;;;;;0.45;0.35;;;;;;;;;;351617;28;20905;-32
2021/11/09 00:47:27;;;;;;;0.47;0.30;;;;;;;;;;350737;28;44816;-33
2021/11/09 00:47:38;;;;;;;0.43;0.22;;;;;;;;;;351645;28;21169;-32
2021/11/09 00:47:50;;;;;;;0.22;0.20;;;;;;;;;;351585;28;21464;-34
2021/11/09 00:48:01;;;;;;;0.30;0.20;;;;;;;;;;351691;28;20819;-34
2021/11/09 00:48:12;;;;;;;0.20;0.20;;;;;;;;;;350287;28;20710;-33
2021/11/09 00:48:23;;;;;;;0.50;0.30;;;;;;;;;;350184;28;21107;-32
2021/11/09 00:48:34;;;;;;;0.55;0.32;;;;;;;;;;350235;28;21375;-31
2021/11/09 00:48:45;;;;;;;0.52;0.30;;;;;;;;;;350415;28;21280;-33
2021/11/09 00:48:57;;;;;;;0.25;0.20;;;;;;;;;;350778;28;44817;-36
2021/11/09 00:49:08;;;;;;;0.40;0.20;;;;;;;;;;351550;28;21401;-33
2021/11/09 00:49:19;;;;;;;0.45;0.25;;;;;;;;;;351638;28;21258;-31
2021/11/09 00:49:30;;;;;;;0.57;0.28;;;;;;;;;;350770;28;44838;-34
2021/11/09 00:49:42;;;;;;;0.50;0.20;;;;;;;;;;350196;28;20904;-31
2021/11/09 00:49:53;;;;;;;0.50;0.20;;;;;;;;;;350225;28;21256;-35
2021/11/09 00:50:06;;;;;;;0.22;0.20;;;;;;;;;;350404;28;20912;-33
2021/11/09 00:50:21;;;;;;;0.30;0.20;;;;;;;;;;350015;28;68152;-36
2021/11/09 00:50:33;;;;;;;0.52;0.22;;;;;;;;;;348451;28;114011;-32
2021/11/09 00:50:46;;;;;;;0.57;0.30;;;;;;;;;;350803;28;45254;-32
2021/11/09 00:50:57;;;;;;;0.50;0.30;;;;;;;;;;349895;28;68086;-35
2021/11/09 00:51:08;;;;;;;0.25;0.20;;;;;;;;;;351588;28;21553;-33
2021/11/09 00:51:19;;;;;;;0.20;0.20;;;;;;;;;;351502;28;21033;-34
2021/11/09 00:51:30;;;;;;;0.15;0.15;;;;;;;;;;351619;28;20955;-35
2021/11/09 00:51:43;;;;;;;0.20;0.20;;;;;;;;;;353020;27;21121;-33
2021/11/09 00:51:55;;;;;;;0.20;0.20;;;;;;;;;;349978;28;67581;-35
2021/11/09 00:52:06;;;;;;;0.60;0.20;;;;;;;;;;350868;28;44659;-33
2021/11/09 00:52:17;;;;;;;0.70;0.20;;;;;;;;;;351648;28;21071;-33
2021/11/09 00:52:29;;;;;;;0.60;0.20;;;;;;;;;;351600;28;20785;-38
2021/11/09 00:52:41;;;;;;;0.20;0.20;;;;;;;;;;350820;28;45252;-34
2021/11/09 00:52:53;;;;;;;0.20;0.20;;;;;;;;;;350785;28;45195;-33
2021/11/09 00:53:07;;;;;;;0.30;0.20;;;;;;;;;;350582;28;44855;-31
2021/11/09 00:53:19;;;;;;;0.40;0.20;;;;;;;;;;349265;28;91308;-38
2021/11/09 00:53:30;;;;;;;0.50;0.20;;;;;;;;;;349432;28;45030;-31
2021/11/09 00:53:41;;;;;;;0.55;0.20;;;;;;;;;;350166;28;21109;-31
2021/11/09 00:53:52;;;;;;;0.40;0.20;;;;;;;;;;351798;28;2194;-32
2021/11/09 00:54:04;;;;;;;0.28;0.20;;;;;;;;;;351699;28;21049;-34
2021/11/09 00:54:16;;;;;;;0.20;0.20;;;;;;;;;;350801;28;44765;-32
2021/11/09 00:54:28;;;;;;;0.40;0.22;;;;;;;;;;349984;28;68587;-37
2021/11/09 00:54:39;;;;;;;0.40;0.20;;;;;;;;;;350621;28;45444;-31
2021/11/09 00:54:51;;;;;;;0.35;0.15;;;;;;;;;;351619;28;20797;-35
2021/11/09 00:55:03;;;;;;;0.38;0.20;;;;;;;;;;351660;28;21141;-33
2021/11/09 00:55:14;;;;;;;0.63;0.20;;;;;;;;;;350036;28;68480;-35
2021/11/09 00:55:26;;;;;;;0.70;0.20;;;;;;;;;;351575;28;21456;-34
2021/11/09 00:55:39;;;;;;;0.75;0.20;;;;;;;;;;350805;28;45076;-32
2021/11/09 00:55:52;;;;;;;0.85;0.20;;;;;;;;;;350048;28;68250;-32
2021/11/09 00:56:03;;;;;;;1.27;0.28;;;;;;;;;;349990;28;67631;-34
2021/11/09 00:56:14;;;;;;;0.90;0.28;;;;;;;;;;351623;28;21132;-33
2021/11/09 00:56:27;;;;;;;0.80;0.20;;;;;;;;;;351473;28;21291;-31
2021/11/09 00:56:38;;;;;;;0.20;0.15;;;;;;;;;;349965;28;67787;-34
2021/11/09 00:56:49;;;;;;;0.20;0.20;;;;;;;;;;351637;28;20923;-32
2021/11/09 00:57:01;;;;;;;0.20;0.20;;;;;;;;;;351638;28;20915;-31
2021/11/09 00:57:13;;;;;;;0.17;0.10;;;;;;;;;;351898;27;45479;-33
2021/11/09 00:57:24;;;;;;;0.20;0.20;;;;;;;;;;352319;27;45347;-37
2021/11/09 00:57:35;;;;;;;0.43;0.22;;;;;;;;;;353110;27;21119;-34
2021/11/09 00:57:47;;;;;;;0.75;0.30;;;;;;;;;;351567;28;21460;-31
2021/11/09 00:57:58;;;;;;;1.33;0.40;;;;;;;;;;350827;28;45119;-33
2021/11/09 00:58:10;;;;;;;1.00;0.40;;;;;;;;;;351468;28;21545;-35
2021/11/09 00:58:22;;;;;;;0.55;0.30;;;;;;;;;;350770;28;44795;-35
2021/11/09 00:58:33;;;;;;;0.13;0.13;;;;;;;;;;350833;28;45187;-38
2021/11/09 00:58:44;;;;;;;0.30;0.20;;;;;;;;;;351632;28;21054;-35
2021/11/09 00:58:57;;;;;;;0.32;0.30;;;;;;;;;;351553;28;21135;-33
2021/11/09 00:59:08;;;;;;;0.38;0.30;;;;;;;;;;350010;28;67812;-35
2021/11/09 00:59:19;;;;;;;0.30;0.22;;;;;;;;;;348791;28;21506;-33
2021/11/09 00:59:31;;;;;;;0.20;0.20;;;;;;;;;;347429;28;21045;-32
2021/11/09 00:59:42;;;;;;;0.25;0.20;;;;;;;;;;347641;28;20836;-33
2021/11/09 00:59:53;;;;;;;0.20;0.20;;;;;;;;;;347804;28;45339;-38
2021/11/09 01:00:05;;;;;;;0.35;0.28;;;;;;;;;;348850;28;21102;-35
2021/11/09 01:00:23;;;;;;;0.40;0.30;;;;;;;;;;347949;28;45391;-34
2021/11/09 01:00:35;;;;;;;0.35;0.22;;;;;;;;;;344857;28;136603;-32
2021/11/09 01:00:46;;;;;;;0.28;0.20;;;;;;;;;;348086;28;44927;-32
2021/11/09 01:00:58;;;;;;;0.30;0.30;;;;;;;;;;348876;28;20797;-34
2021/11/09 01:01:09;;;;;;;0.30;0.30;;;;;;;;;;348821;28;21384;-34
2021/11/09 01:01:20;;;;;;;0.20;0.20;;;;;;;;;;350115;28;21404;-35
2021/11/09 01:01:32;;;;;;;0.10;0.10;;;;;;;;;;351380;28;21250;-35
2021/11/09 01:01:43;;;;;;;0.20;0.20;;;;;;;;;;352310;27;44711;-37
2021/11/09 01:01:54;;;;;;;0.20;0.20;;;;;;;;;;353143;27;21074;-37
2021/11/09 01:02:06;;;;;;;0.20;0.20;;;;;;;;;;352323;27;44926;-32
2021/11/09 01:02:18;;;;;;;0.20;0.20;;;;;;;;;;352366;27;45038;-34
2021/11/09 01:02:29;;;;;;;0.50;0.20;;;;;;;;;;350844;28;44989;-35
2021/11/09 01:02:42;;;;;;;0.60;0.20;;;;;;;;;;351609;28;20940;-36
2021/11/09 01:02:54;;;;;;;0.70;0.20;;;;;;;;;;350716;28;45377;-36
2021/11/09 01:03:07;;;;;;;0.50;0.20;;;;;;;;;;350003;28;68101;-34
2021/11/09 01:03:18;;;;;;;0.32;0.20;;;;;;;;;;350003;28;68271;-34
2021/11/09 01:03:30;;;;;;;0.60;0.30;;;;;;;;;;350854;28;44858;-34
2021/11/09 01:03:42;;;;;;;0.60;0.30;;;;;;;;;;350812;28;45457;-32
2021/11/09 01:03:53;;;;;;;0.30;0.20;;;;;;;;;;351538;28;21327;-34
2021/11/09 01:04:05;;;;;;;0.22;0.20;;;;;;;;;;352385;28;1068;-32
2021/11/09 01:04:16;;;;;;;0.20;0.20;;;;;;;;;;349987;28;68194;-34
2021/11/09 01:04:27;;;;;;;0.20;0.20;;;;;;;;;;351232;28;20882;-36
2021/11/09 01:04:38;;;;;;;0.20;0.20;;;;;;;;;;351564;28;21357;-35
2021/11/09 01:04:50;;;;;;;0.28;0.28;;;;;;;;;;351390;28;21482;-37
2021/11/09 01:05:01;;;;;;;0.30;0.30;;;;;;;;;;351578;28;20858;-32
2021/11/09 01:05:13;;;;;;;0.30;0.20;;;;;;;;;;350900;28;44751;-33
2021/11/09 01:05:26;;;;;;;0.20;0.20;;;;;;;;;;351618;28;21419;-31
2021/11/09 01:05:38;;;;;;;0.20;0.20;;;;;;;;;;349180;28;90508;-32
2021/11/09 01:05:49;;;;;;;0.20;0.20;;;;;;;;;;349448;28;45373;-35
2021/11/09 01:06:00;;;;;;;0.20;0.20;;;;;;;;;;349432;28;44827;-35
2021/11/09 01:06:11;;;;;;;0.20;0.20;;;;;;;;;;349394;28;44920;-32
2021/11/09 01:06:23;;;;;;;0.20;0.13;;;;;;;;;;350799;28;21211;-33
2021/11/09 01:06:34;;;;;;;0.10;0.10;;;;;;;;;;349936;28;22013;-35
2021/11/09 01:06:45;;;;;;;0.20;0.17;;;;;;;;;;350207;28;21000;-31
2021/11/09 01:06:56;;;;;;;0.30;0.20;;;;;;;;;;348787;28;21499;-34
2021/11/09 01:07:08;;;;;;;0.40;0.30;;;;;;;;;;348031;28;44978;-32
2021/11/09 01:07:19;;;;;;;0.30;0.20;;;;;;;;;;348829;28;20873;-32
2021/11/09 01:07:30;;;;;;;0.50;0.30;;;;;;;;;;348769;28;20967;-33
2021/11/09 01:07:41;;;;;;;0.47;0.30;;;;;;;;;;349288;28;10130;-34
2021/11/09 01:08:04;;;;;;;0.38;0.25;;;;;;;;;;350215;28;20889;-35
2021/11/09 01:08:18;;;;;;;0.32;0.10;;;;;;;;;;346217;28;136479;-32
2021/11/09 01:08:30;;;;;;;0.50;0.20;;;;;;;;;;349774;27;90506;-35
2021/11/09 01:08:41;;;;;;;0.40;0.20;;;;;;;;;;352288;27;44790;-32
2021/11/09 01:08:52;;;;;;;0.35;0.20;;;;;;;;;;353013;27;21233;-33
2021/11/09 01:09:05;;;;;;;0.22;0.20;;;;;;;;;;353186;27;21635;-35
2021/11/09 01:09:16;;;;;;;0.40;0.20;;;;;;;;;;351542;27;68250;-31
2021/11/09 01:09:27;;;;;;;0.57;0.20;;;;;;;;;;351592;28;20688;-35
2021/11/09 01:09:38;;;;;;;0.40;0.20;;;;;;;;;;351501;28;20957;-33
2021/11/09 01:09:49;;;;;;;0.32;0.20;;;;;;;;;;351666;28;20931;-32
2021/11/09 01:10:00;;;;;;;0.30;0.20;;;;;;;;;;351353;28;21488;-37
2021/11/09 01:10:11;;;;;;;0.30;0.20;;;;;;;;;;351619;28;20867;-34
2021/11/09 01:10:27;;;;;;;0.20;0.20;;;;;;;;;;352110;28;6923;-35
2021/11/09 01:10:42;;;;;;;0.20;0.20;;;;;;;;;;347557;28;136552;-33
2021/11/09 01:10:54;;;;;;;0.20;0.20;;;;;;;;;;348373;28;114002;-36
2021/11/09 01:11:05;;;;;;;0.38;0.20;;;;;;;;;;350707;28;45237;-33
2021/11/09 01:11:17;;;;;;;0.40;0.20;;;;;;;;;;351608;28;20994;-32
2021/11/09 01:11:28;;;;;;;0.32;0.20;;;;;;;;;;352282;27;45481;-32
2021/11/09 01:11:39;;;;;;;0.40;0.20;;;;;;;;;;352957;27;20802;-35
2021/11/09 01:11:51;;;;;;;0.40;0.20;;;;;;;;;;353159;27;20881;-35
2021/11/09 01:12:03;;;;;;;0.25;0.20;;;;;;;;;;352322;27;43964;-34
2021/11/09 01:12:14;;;;;;;0.25;0.20;;;;;;;;;;352287;27;45418;-35
2021/11/09 01:12:26;;;;;;;0.35;0.20;;;;;;;;;;352300;27;45275;-35
2021/11/09 01:12:37;;;;;;;0.47;0.20;;;;;;;;;;353150;27;21425;-35
2021/11/09 01:12:48;;;;;;;0.43;0.20;;;;;;;;;;351586;28;21033;-35
2021/11/09 01:12:59;;;;;;;0.28;0.13;;;;;;;;;;351627;28;20813;-36
2021/11/09 01:13:11;;;;;;;0.30;0.10;;;;;;;;;;351602;28;21600;-35
2021/11/09 01:13:24;;;;;;;0.20;0.20;;;;;;;;;;350597;28;45346;-37
2021/11/09 01:13:36;;;;;;;0.17;0.17;;;;;;;;;;349180;28;91085;-33
2021/11/09 01:13:48;;;;;;;0.20;0.10;;;;;;;;;;351571;28;21575;-33
2021/11/09 01:14:01;;;;;;;0.30;0.17;;;;;;;;;;350808;28;45125;-32
2021/11/09 01:14:12;;;;;;;0.20;0.20;;;;;;;;;;349900;28;68277;-32
2021/11/09 01:14:24;;;;;;;0.25;0.25;;;;;;;;;;351534;28;21023;-34
2021/11/09 01:14:35;;;;;;;0.28;0.28;;;;;;;;;;350578;28;44987;-37